PWSweather.com
Personal Weather Stations
Station Observations
KCAOCEAN4
Jeffries Ranch, Oceanside, CA 92057

Jeffries RanchOceanside, CA 92057

Lat: 33.2463208, Lon: -117.25335080000002

Elevation: 207

Station Type: Davis Vantage Vue

jeffriesranchweather.com

High Low Average
Temperature 55.6°F13.1°C 38.5°F3.6°C 48.6°F9.2°C
Dew Point 47.3°F8.5°C 35.6°F2.0°C 41.1°F5.1°C
Winds 8.9 mph 14.3 kmh Calm Calm 2.0 mph S3.2 kmh S
Wind Gusts 17.0 mph27.4 kmh -- 5.0 mph8.0 kmh
Humidity 95% 49% 77%
Pressure 30.07 in1018.3 mb 29.86 in1011.2 mb -
Precipitation 0.31 in7.9 mm - -
Hour Temp Dew Point Humidity Winds Wind Gusts Pressure Precip Precip Rate Daily Precip Total
12:00 AM 49.8°F9.9°C 43.5°F6.4°C 79% 0.9 mph SE1.4 kmh SE 2.9 mph4.7 kmh 29.89 in1012.2 mb 0.00 in0.0 mm 0.00 in0.0 mm 0.00 in0.0 mm
12:10 AM 49.5°F9.7°C 43.2°F6.2°C 79% Calm Calm 2.0 mph3.2 kmh 29.89 in1012.2 mb 0.00 in0.0 mm 0.00 in0.0 mm 0.00 in0.0 mm
12:20 AM 49.5°F9.7°C 43.5°F6.4°C 80% Calm Calm 0.9 mph1.4 kmh 29.88 in1011.9 mb 0.00 in0.0 mm 0.00 in0.0 mm 0.00 in0.0 mm
12:30 AM 50.4°F10.2°C 44.1°F6.7°C 79% 0.9 mph SE1.4 kmh SE 4.0 mph6.4 kmh 29.88 in1011.9 mb 0.00 in0.0 mm 0.00 in0.0 mm 0.00 in0.0 mm
12:40 AM 50.7°F10.4°C 44.1°F6.7°C 78% 0.9 mph SSE1.4 kmh SSE 4.9 mph7.9 kmh 29.88 in1011.9 mb 0.00 in0.0 mm 0.00 in0.0 mm 0.00 in0.0 mm
12:50 AM 51.4°F10.8°C 44.4°F6.9°C 77% 2.9 mph SE4.7 kmh SE 4.9 mph7.9 kmh 29.88 in1011.9 mb 0.00 in0.0 mm 0.00 in0.0 mm 0.00 in0.0 mm
01:00 AM 52.0°F11.1°C 44.6°F7.0°C 76% 4.0 mph SE6.4 kmh SE 6.0 mph9.7 kmh 29.87 in1011.5 mb 0.00 in0.0 mm 0.00 in0.0 mm 0.00 in0.0 mm
01:10 AM 52.0°F11.1°C 44.6°F7.0°C 76% 4.9 mph ESE7.9 kmh ESE 10.1 mph16.3 kmh 29.87 in1011.5 mb 0.00 in0.0 mm 0.00 in0.0 mm 0.00 in0.0 mm
01:20 AM 52.2°F11.2°C 44.8°F7.1°C 76% 4.9 mph SSW7.9 kmh SSW 10.1 mph16.3 kmh 29.86 in1011.2 mb 0.00 in0.0 mm 0.00 in0.0 mm 0.00 in0.0 mm
01:30 AM 52.3°F11.3°C 45.0°F7.2°C 76% 2.9 mph SSW4.7 kmh SSW 8.1 mph13.0 kmh 29.87 in1011.5 mb 0.00 in0.0 mm 0.00 in0.0 mm 0.00 in0.0 mm
01:40 AM 50.9°F10.5°C 46.6°F8.1°C 85% 4.0 mph W6.4 kmh W 8.1 mph13.0 kmh 29.88 in1011.9 mb 0.06 in1.5 mm 0.36 in9.1 mm 0.06 in1.5 mm
01:50 AM 50.2°F10.1°C 47.3°F8.5°C 90% 8.1 mph W13.0 kmh W 17.0 mph27.4 kmh 29.88 in1011.9 mb 0.10 in2.5 mm 0.24 in6.1 mm 0.10 in2.5 mm
02:00 AM 49.3°F9.6°C 46.4°F8.0°C 90% 8.9 mph W14.3 kmh W 17.0 mph27.4 kmh 29.88 in1011.9 mb 0.11 in2.8 mm 0.01 in0.3 mm 0.11 in2.8 mm
02:10 AM 48.9°F9.4°C 46.4°F8.0°C 91% 6.9 mph WSW11.1 kmh WSW 16.1 mph25.9 kmh 29.88 in1011.9 mb 0.11 in2.8 mm 0.00 in0.0 mm 0.11 in2.8 mm
02:20 AM 48.6°F9.2°C 46.0°F7.8°C 91% 8.1 mph W13.0 kmh W 16.1 mph25.9 kmh 29.88 in1011.9 mb 0.13 in3.3 mm 0.12 in3.0 mm 0.13 in3.3 mm
02:30 AM 48.4°F9.1°C 46.2°F7.9°C 92% 4.0 mph WSW6.4 kmh WSW 10.1 mph16.3 kmh 29.88 in1011.9 mb 0.15 in3.8 mm 0.12 in3.0 mm 0.15 in3.8 mm
02:40 AM 48.2°F9.0°C 45.7°F7.6°C 91% 6.9 mph WNW11.1 kmh WNW 13.0 mph20.9 kmh 29.88 in1011.9 mb 0.10 in2.5 mm 0.00 in0.0 mm 0.16 in4.1 mm
02:50 AM 48.0°F8.9°C 45.5°F7.5°C 91% 6.0 mph WNW9.7 kmh WNW 12.1 mph19.5 kmh 29.88 in1011.9 mb 0.07 in1.8 mm 0.00 in0.0 mm 0.17 in4.3 mm
03:00 AM 48.2°F9.0°C 46.0°F7.8°C 92% 4.0 mph W6.4 kmh W 8.9 mph14.3 kmh 29.88 in1011.9 mb 0.07 in1.8 mm 0.00 in0.0 mm 0.18 in4.6 mm
03:10 AM 48.0°F8.9°C 45.9°F7.7°C 92% 2.9 mph NW4.7 kmh NW 8.1 mph13.0 kmh 29.88 in1011.9 mb 0.07 in1.8 mm 0.00 in0.0 mm 0.18 in4.6 mm
03:20 AM 47.8°F8.8°C 45.7°F7.6°C 92% 4.0 mph WNW6.4 kmh WNW 9.0 mph14.5 kmh 29.88 in1011.9 mb 0.07 in1.8 mm 0.00 in0.0 mm 0.20 in5.1 mm
03:30 AM 47.7°F8.7°C 45.5°F7.5°C 92% 2.0 mph WSW3.2 kmh WSW 6.0 mph9.7 kmh 29.88 in1011.9 mb 0.06 in1.5 mm 0.00 in0.0 mm 0.21 in5.3 mm
03:40 AM 47.5°F8.6°C 45.3°F7.4°C 92% Calm Calm 2.9 mph4.7 kmh 29.88 in1011.9 mb 0.06 in1.5 mm 0.00 in0.0 mm 0.22 in5.6 mm
03:50 AM 47.3°F8.5°C 45.1°F7.3°C 92% Calm Calm 0.9 mph1.4 kmh 29.88 in1011.9 mb 0.05 in1.3 mm 0.00 in0.0 mm 0.22 in5.6 mm
04:00 AM 47.1°F8.4°C 45.1°F7.3°C 93% 0.9 mph SE1.4 kmh SE 2.0 mph3.2 kmh 29.87 in1011.5 mb 0.05 in1.3 mm 0.00 in0.0 mm 0.23 in5.8 mm
04:10 AM 47.1°F8.4°C 45.1°F7.3°C 93% Calm Calm 0.9 mph1.4 kmh 29.87 in1011.5 mb 0.05 in1.3 mm 0.00 in0.0 mm 0.23 in5.8 mm
04:20 AM 47.1°F8.4°C 45.1°F7.3°C 93% Calm Calm 0.9 mph1.4 kmh 29.86 in1011.2 mb 0.03 in0.8 mm 0.00 in0.0 mm 0.23 in5.8 mm
04:30 AM 47.1°F8.4°C 45.1°F7.3°C 93% Calm Calm 2.0 mph3.2 kmh 29.87 in1011.5 mb 0.02 in0.5 mm 0.00 in0.0 mm 0.23 in5.8 mm
04:40 AM 47.1°F8.4°C 45.1°F7.3°C 93% Calm Calm 0.9 mph1.4 kmh 29.87 in1011.5 mb 0.01 in0.3 mm 0.00 in0.0 mm 0.23 in5.8 mm
04:50 AM 47.3°F8.5°C 45.3°F7.4°C 93% Calm Calm 1.0 mph1.6 kmh 29.87 in1011.5 mb 0.01 in0.3 mm 0.00 in0.0 mm 0.23 in5.8 mm
05:00 AM 47.3°F8.5°C 45.3°F7.4°C 93% Calm Calm 0.9 mph1.4 kmh 29.87 in1011.5 mb 0.01 in0.3 mm 0.00 in0.0 mm 0.24 in6.1 mm
05:10 AM 47.3°F8.5°C 45.7°F7.6°C 94% Calm Calm 2.0 mph3.2 kmh 29.86 in1011.2 mb 0.01 in0.3 mm 0.00 in0.0 mm 0.24 in6.1 mm
05:20 AM 47.1°F8.4°C 45.5°F7.5°C 94% Calm Calm 2.0 mph3.2 kmh 29.87 in1011.5 mb 0.01 in0.3 mm 0.00 in0.0 mm 0.24 in6.1 mm
05:30 AM 47.1°F8.4°C 45.5°F7.5°C 94% Calm Calm -- 29.87 in1011.5 mb 0.03 in0.8 mm 0.12 in3.0 mm 0.26 in6.6 mm
05:40 AM 47.3°F8.5°C 45.7°F7.6°C 94% Calm Calm 2.0 mph3.2 kmh 29.87 in1011.5 mb 0.04 in1.0 mm 0.06 in1.5 mm 0.27 in6.9 mm
05:50 AM 47.1°F8.4°C 45.5°F7.5°C 94% Calm Calm 0.9 mph1.4 kmh 29.87 in1011.5 mb 0.04 in1.0 mm 0.00 in0.0 mm 0.27 in6.9 mm
06:00 AM 46.9°F8.3°C 45.3°F7.4°C 94% Calm Calm 0.9 mph1.4 kmh 29.88 in1011.9 mb 0.03 in0.8 mm 0.00 in0.0 mm 0.27 in6.9 mm
06:10 AM 46.9°F8.3°C 45.3°F7.4°C 94% Calm Calm -- 29.88 in1011.9 mb 0.03 in0.8 mm 0.00 in0.0 mm 0.28 in7.1 mm
06:20 AM 46.9°F8.3°C 45.3°F7.4°C 94% Calm Calm 2.0 mph3.2 kmh 29.88 in1011.9 mb 0.05 in1.3 mm 0.12 in3.0 mm 0.29 in7.4 mm
06:30 AM 46.8°F8.2°C 45.1°F7.3°C 94% Calm Calm 2.0 mph3.2 kmh 29.88 in1011.9 mb 0.03 in0.8 mm 0.00 in0.0 mm 0.29 in7.4 mm
06:40 AM 46.9°F8.3°C 45.3°F7.4°C 94% Calm Calm -- 29.88 in1011.9 mb 0.02 in0.5 mm 0.00 in0.0 mm 0.29 in7.4 mm
06:50 AM 46.6°F8.1°C 45.0°F7.2°C 94% Calm Calm 1.0 mph1.6 kmh 29.88 in1011.9 mb 0.02 in0.5 mm 0.00 in0.0 mm 0.29 in7.4 mm
07:00 AM 46.6°F8.1°C 45.0°F7.2°C 94% Calm Calm 0.9 mph1.4 kmh 29.88 in1011.9 mb 0.02 in0.5 mm 0.00 in0.0 mm 0.29 in7.4 mm
07:10 AM 46.6°F8.1°C 45.0°F7.2°C 94% Calm Calm 0.9 mph1.4 kmh 29.89 in1012.2 mb 0.01 in0.3 mm 0.00 in0.0 mm 0.29 in7.4 mm
07:20 AM 46.2°F7.9°C 44.6°F7.0°C 94% Calm Calm -- 29.89 in1012.2 mb 0.00 in0.0 mm 0.00 in0.0 mm 0.29 in7.4 mm
07:30 AM 46.0°F7.8°C 44.4°F6.9°C 94% Calm Calm 2.0 mph3.2 kmh 29.89 in1012.2 mb 0.00 in0.0 mm 0.00 in0.0 mm 0.29 in7.4 mm
07:40 AM 46.2°F7.9°C 44.6°F7.0°C 94% Calm Calm -- 29.90 in1012.5 mb 0.01 in0.3 mm 0.06 in1.5 mm 0.30 in7.6 mm
07:50 AM 46.0°F7.8°C 44.4°F6.9°C 94% 0.9 mph SE1.4 kmh SE 3.0 mph4.8 kmh 29.90 in1012.5 mb 0.01 in0.3 mm 0.00 in0.0 mm 0.30 in7.6 mm
08:00 AM 46.0°F7.8°C 44.4°F6.9°C 94% 0.9 mph ESE1.4 kmh ESE 2.0 mph3.2 kmh 29.90 in1012.5 mb 0.01 in0.3 mm 0.00 in0.0 mm 0.30 in7.6 mm
08:10 AM 45.9°F7.7°C 44.2°F6.8°C 94% Calm Calm 2.0 mph3.2 kmh 29.91 in1012.9 mb 0.01 in0.3 mm 0.00 in0.0 mm 0.30 in7.6 mm
08:20 AM 46.2°F7.9°C 44.8°F7.1°C 95% Calm Calm 2.0 mph3.2 kmh 29.91 in1012.9 mb 0.01 in0.3 mm 0.00 in0.0 mm 0.30 in7.6 mm
08:30 AM 46.9°F8.3°C 45.3°F7.4°C 94% Calm Calm 2.0 mph3.2 kmh 29.91 in1012.9 mb 0.01 in0.3 mm 0.00 in0.0 mm 0.30 in7.6 mm
08:40 AM 47.5°F8.6°C 45.9°F7.7°C 94% 0.9 mph NE1.4 kmh NE 4.0 mph6.4 kmh 29.92 in1013.2 mb 0.00 in0.0 mm 0.00 in0.0 mm 0.30 in7.6 mm
08:50 AM 47.8°F8.8°C 45.7°F7.6°C 92% 2.0 mph NE3.2 kmh NE 2.9 mph4.7 kmh 29.92 in1013.2 mb 0.00 in0.0 mm 0.00 in0.0 mm 0.30 in7.6 mm
09:00 AM 48.4°F9.1°C 45.9°F7.7°C 91% Calm Calm 2.0 mph3.2 kmh 29.93 in1013.5 mb 0.00 in0.0 mm 0.00 in0.0 mm 0.30 in7.6 mm
09:10 AM 48.4°F9.1°C 45.3°F7.4°C 89% Calm Calm 2.0 mph3.2 kmh 29.93 in1013.5 mb 0.00 in0.0 mm 0.00 in0.0 mm 0.30 in7.6 mm
09:20 AM 48.2°F9.0°C 44.6°F7.0°C 87% 0.9 mph E1.4 kmh E 2.0 mph3.2 kmh 29.93 in1013.5 mb 0.00 in0.0 mm 0.00 in0.0 mm 0.30 in7.6 mm
09:30 AM 48.2°F9.0°C 44.6°F7.0°C 87% 0.9 mph WNW1.4 kmh WNW 4.0 mph6.4 kmh 29.94 in1013.9 mb 0.00 in0.0 mm 0.00 in0.0 mm 0.30 in7.6 mm
09:40 AM 47.7°F8.7°C 43.7°F6.5°C 86% 0.9 mph WNW1.4 kmh WNW 5.0 mph8.0 kmh 29.95 in1014.2 mb 0.00 in0.0 mm 0.00 in0.0 mm 0.30 in7.6 mm
09:50 AM 47.5°F8.6°C 43.9°F6.6°C 87% 0.9 mph WNW1.4 kmh WNW 4.0 mph6.4 kmh 29.95 in1014.2 mb 0.00 in0.0 mm 0.00 in0.0 mm 0.30 in7.6 mm
10:00 AM 47.7°F8.7°C 44.1°F6.7°C 87% Calm Calm 2.0 mph3.2 kmh 29.95 in1014.2 mb 0.00 in0.0 mm 0.00 in0.0 mm 0.30 in7.6 mm
10:10 AM 46.9°F8.3°C 42.6°F5.9°C 85% 2.0 mph SE3.2 kmh SE 5.0 mph8.0 kmh 29.96 in1014.6 mb 0.00 in0.0 mm 0.00 in0.0 mm 0.30 in7.6 mm
10:20 AM 46.8°F8.2°C 42.3°F5.7°C 84% 2.9 mph SE4.7 kmh SE 4.9 mph7.9 kmh 29.96 in1014.6 mb 0.00 in0.0 mm 0.00 in0.0 mm 0.30 in7.6 mm
10:30 AM 46.9°F8.3°C 42.4°F5.8°C 84% 2.0 mph SE3.2 kmh SE 4.0 mph6.4 kmh 29.96 in1014.6 mb 0.00 in0.0 mm 0.00 in0.0 mm 0.30 in7.6 mm
10:40 AM 47.3°F8.5°C 42.8°F6.0°C 84% 0.9 mph SSE1.4 kmh SSE 4.0 mph6.4 kmh 29.97 in1014.9 mb 0.00 in0.0 mm 0.00 in0.0 mm 0.30 in7.6 mm
10:50 AM 47.5°F8.6°C 42.6°F5.9°C 83% 2.0 mph SSE3.2 kmh SSE 6.0 mph9.7 kmh 29.97 in1014.9 mb 0.01 in0.3 mm 0.06 in1.5 mm 0.31 in7.9 mm
11:00 AM 48.4°F9.1°C 41.9°F5.5°C 78% 2.9 mph SE4.7 kmh SE 6.0 mph9.7 kmh 29.97 in1014.9 mb 0.01 in0.3 mm 0.00 in0.0 mm 0.31 in7.9 mm
11:10 AM 49.3°F9.6°C 42.8°F6.0°C 78% 2.9 mph SSE4.7 kmh SSE 6.0 mph9.7 kmh 29.96 in1014.6 mb 0.01 in0.3 mm 0.00 in0.0 mm 0.31 in7.9 mm
11:20 AM 50.4°F10.2°C 42.4°F5.8°C 74% 2.0 mph E3.2 kmh E 4.9 mph7.9 kmh 29.96 in1014.6 mb 0.01 in0.3 mm 0.00 in0.0 mm 0.31 in7.9 mm
11:30 AM 51.3°F10.7°C 42.6°F5.9°C 72% 2.0 mph ESE3.2 kmh ESE 6.0 mph9.7 kmh 29.97 in1014.9 mb 0.01 in0.3 mm 0.00 in0.0 mm 0.31 in7.9 mm
11:40 AM 52.3°F11.3°C 40.5°F4.7°C 64% 0.9 mph SE1.4 kmh SE 4.0 mph6.4 kmh 29.97 in1014.9 mb 0.01 in0.3 mm 0.00 in0.0 mm 0.31 in7.9 mm
11:50 AM 52.3°F11.3°C 41.0°F5.0°C 65% 2.0 mph SE3.2 kmh SE 7.0 mph11.3 kmh 29.98 in1015.2 mb 0.00 in0.0 mm 0.00 in0.0 mm 0.31 in7.9 mm
12:00 PM 52.3°F11.3°C 39.4°F4.1°C 61% 0.9 mph W1.4 kmh W 6.0 mph9.7 kmh 29.98 in1015.2 mb 0.00 in0.0 mm 0.00 in0.0 mm 0.31 in7.9 mm
12:10 PM 52.2°F11.2°C 39.6°F4.2°C 62% 2.0 mph SSW3.2 kmh SSW 6.0 mph9.7 kmh 29.97 in1014.9 mb 0.00 in0.0 mm 0.00 in0.0 mm 0.31 in7.9 mm
12:20 PM 54.3°F12.4°C 40.3°F4.6°C 59% 0.9 mph SW1.4 kmh SW 4.9 mph7.9 kmh 29.98 in1015.2 mb 0.00 in0.0 mm 0.00 in0.0 mm 0.31 in7.9 mm
12:30 PM 54.3°F12.4°C 41.2°F5.1°C 61% 2.0 mph N3.2 kmh N 6.0 mph9.7 kmh 29.97 in1014.9 mb 0.00 in0.0 mm 0.00 in0.0 mm 0.31 in7.9 mm
12:40 PM 55.2°F12.9°C 41.2°F5.1°C 59% 0.9 mph WSW1.4 kmh WSW 6.0 mph9.7 kmh 29.97 in1014.9 mb 0.00 in0.0 mm 0.00 in0.0 mm 0.31 in7.9 mm
12:50 PM 55.0°F12.8°C 38.7°F3.7°C 54% 4.9 mph WSW7.9 kmh WSW 12.1 mph19.5 kmh 29.97 in1014.9 mb 0.00 in0.0 mm 0.00 in0.0 mm 0.31 in7.9 mm
01:00 PM 54.0°F12.2°C 39.0°F3.9°C 57% 4.9 mph S7.9 kmh S 15.0 mph24.1 kmh 29.96 in1014.6 mb 0.00 in0.0 mm 0.00 in0.0 mm 0.31 in7.9 mm
01:10 PM 54.0°F12.2°C 38.1°F3.4°C 55% 4.9 mph WNW7.9 kmh WNW 10.1 mph16.3 kmh 29.96 in1014.6 mb 0.00 in0.0 mm 0.00 in0.0 mm 0.31 in7.9 mm
01:20 PM 54.9°F12.7°C 39.4°F4.1°C 56% 4.0 mph E6.4 kmh E 8.9 mph14.3 kmh 29.95 in1014.2 mb 0.00 in0.0 mm 0.00 in0.0 mm 0.31 in7.9 mm
01:30 PM 55.0°F12.8°C 37.2°F2.9°C 51% 4.0 mph NW6.4 kmh NW 11.0 mph17.7 kmh 29.95 in1014.2 mb 0.00 in0.0 mm 0.00 in0.0 mm 0.31 in7.9 mm
01:40 PM 55.6°F13.1°C 38.3°F3.5°C 52% 4.0 mph W6.4 kmh W 11.0 mph17.7 kmh 29.94 in1013.9 mb 0.00 in0.0 mm 0.00 in0.0 mm 0.31 in7.9 mm
01:50 PM 54.7°F12.6°C 36.9°F2.7°C 51% 6.0 mph W9.7 kmh W 11.0 mph17.7 kmh 29.94 in1013.9 mb 0.00 in0.0 mm 0.00 in0.0 mm 0.31 in7.9 mm
02:00 PM 54.3°F12.4°C 37.9°F3.3°C 54% 6.0 mph WSW9.7 kmh WSW 14.1 mph22.7 kmh 29.94 in1013.9 mb 0.00 in0.0 mm 0.00 in0.0 mm 0.31 in7.9 mm
02:10 PM 54.7°F12.6°C 38.3°F3.5°C 54% 6.0 mph SSW9.7 kmh SSW 13.0 mph20.9 kmh 29.93 in1013.5 mb 0.00 in0.0 mm 0.00 in0.0 mm 0.31 in7.9 mm
02:20 PM 54.3°F12.4°C 37.6°F3.1°C 53% 4.0 mph S6.4 kmh S 11.0 mph17.7 kmh 29.93 in1013.5 mb 0.00 in0.0 mm 0.00 in0.0 mm 0.31 in7.9 mm
02:30 PM 55.0°F12.8°C 36.1°F2.3°C 49% 4.9 mph WNW7.9 kmh WNW 12.1 mph19.5 kmh 29.93 in1013.5 mb 0.00 in0.0 mm 0.00 in0.0 mm 0.31 in7.9 mm
02:40 PM 54.3°F12.4°C 37.6°F3.1°C 53% 6.0 mph WSW9.7 kmh WSW 12.1 mph19.5 kmh 29.93 in1013.5 mb 0.00 in0.0 mm 0.00 in0.0 mm 0.31 in7.9 mm
02:50 PM 54.7°F12.6°C 36.9°F2.7°C 51% 4.9 mph WSW7.9 kmh WSW 13.0 mph20.9 kmh 29.93 in1013.5 mb 0.00 in0.0 mm 0.00 in0.0 mm 0.31 in7.9 mm
03:00 PM 55.4°F13.0°C 38.5°F3.6°C 53% 4.9 mph WSW7.9 kmh WSW 11.0 mph17.7 kmh 29.93 in1013.5 mb 0.00 in0.0 mm 0.00 in0.0 mm 0.31 in7.9 mm
03:10 PM 55.4°F13.0°C 38.5°F3.6°C 53% 4.0 mph WNW6.4 kmh WNW 11.0 mph17.7 kmh 29.93 in1013.5 mb 0.00 in0.0 mm 0.00 in0.0 mm 0.31 in7.9 mm
03:20 PM 55.4°F13.0°C 37.0°F2.8°C 50% 4.0 mph W6.4 kmh W 10.1 mph16.3 kmh 29.93 in1013.5 mb 0.00 in0.0 mm 0.00 in0.0 mm 0.31 in7.9 mm
03:30 PM 55.4°F13.0°C 37.6°F3.1°C 51% 4.0 mph WSW6.4 kmh WSW 11.0 mph17.7 kmh 29.94 in1013.9 mb 0.00 in0.0 mm 0.00 in0.0 mm 0.31 in7.9 mm
03:40 PM 55.0°F12.8°C 39.2°F4.0°C 55% 4.9 mph W7.9 kmh W 10.1 mph16.3 kmh 29.95 in1014.2 mb 0.00 in0.0 mm 0.00 in0.0 mm 0.31 in7.9 mm
03:50 PM 54.9°F12.7°C 38.1°F3.4°C 53% 4.9 mph W7.9 kmh W 13.0 mph20.9 kmh 29.95 in1014.2 mb 0.00 in0.0 mm 0.00 in0.0 mm 0.31 in7.9 mm
04:00 PM 55.2°F12.9°C 37.9°F3.3°C 52% 6.0 mph NW9.7 kmh NW 13.0 mph20.9 kmh 29.95 in1014.2 mb 0.00 in0.0 mm 0.00 in0.0 mm 0.31 in7.9 mm
04:10 PM 55.4°F13.0°C 38.1°F3.4°C 52% 4.9 mph SSW7.9 kmh SSW 11.0 mph17.7 kmh 29.96 in1014.6 mb 0.00 in0.0 mm 0.00 in0.0 mm 0.31 in7.9 mm
04:20 PM 55.2°F12.9°C 36.3°F2.4°C 49% 4.9 mph SW7.9 kmh SW 12.1 mph19.5 kmh 29.96 in1014.6 mb 0.00 in0.0 mm 0.00 in0.0 mm 0.31 in7.9 mm
04:30 PM 55.6°F13.1°C 38.3°F3.5°C 52% 4.0 mph SSW6.4 kmh SSW 10.1 mph16.3 kmh 29.96 in1014.6 mb 0.00 in0.0 mm 0.00 in0.0 mm 0.31 in7.9 mm
04:40 PM 55.6°F13.1°C 38.3°F3.5°C 52% 4.9 mph WNW7.9 kmh WNW 12.1 mph19.5 kmh 29.96 in1014.6 mb 0.00 in0.0 mm 0.00 in0.0 mm 0.31 in7.9 mm
04:50 PM 55.2°F12.9°C 38.3°F3.5°C 53% 4.9 mph WSW7.9 kmh WSW 12.1 mph19.5 kmh 29.96 in1014.6 mb 0.00 in0.0 mm 0.00 in0.0 mm 0.31 in7.9 mm
05:00 PM 54.9°F12.7°C 39.9°F4.4°C 57% 6.0 mph WNW9.7 kmh WNW 12.1 mph19.5 kmh 29.96 in1014.6 mb 0.00 in0.0 mm 0.00 in0.0 mm 0.31 in7.9 mm
05:10 PM 55.2°F12.9°C 39.7°F4.3°C 56% 4.0 mph SSW6.4 kmh SSW 8.1 mph13.0 kmh 29.96 in1014.6 mb 0.00 in0.0 mm 0.00 in0.0 mm 0.31 in7.9 mm
05:20 PM 55.6°F13.1°C 38.7°F3.7°C 53% 4.0 mph S6.4 kmh S 10.1 mph16.3 kmh 29.96 in1014.6 mb 0.00 in0.0 mm 0.00 in0.0 mm 0.31 in7.9 mm
05:30 PM 54.9°F12.7°C 38.1°F3.4°C 53% 4.9 mph WSW7.9 kmh WSW 10.1 mph16.3 kmh 29.97 in1014.9 mb 0.00 in0.0 mm 0.00 in0.0 mm 0.31 in7.9 mm
05:40 PM 54.7°F12.6°C 39.4°F4.1°C 56% 4.9 mph WSW7.9 kmh WSW 8.9 mph14.3 kmh 29.97 in1014.9 mb 0.00 in0.0 mm 0.00 in0.0 mm 0.31 in7.9 mm
05:50 PM 54.3°F12.4°C 39.0°F3.9°C 56% 4.0 mph SW6.4 kmh SW 11.0 mph17.7 kmh 29.97 in1014.9 mb 0.00 in0.0 mm 0.00 in0.0 mm 0.31 in7.9 mm
06:00 PM 54.0°F12.2°C 38.1°F3.4°C 55% 4.0 mph SW6.4 kmh SW 10.1 mph16.3 kmh 29.97 in1014.9 mb 0.00 in0.0 mm 0.00 in0.0 mm 0.31 in7.9 mm
06:10 PM 53.6°F12.0°C 37.8°F3.2°C 55% 2.0 mph W3.2 kmh W 6.0 mph9.7 kmh 29.98 in1015.2 mb 0.00 in0.0 mm 0.00 in0.0 mm 0.31 in7.9 mm
06:30 PM 51.6°F10.9°C 38.7°F3.7°C 61% 2.0 mph W3.2 kmh W 6.0 mph9.7 kmh 29.98 in1015.2 mb 0.00 in0.0 mm 0.00 in0.0 mm 0.31 in7.9 mm
06:40 PM 51.1°F10.6°C 38.5°F3.6°C 62% 0.9 mph SW1.4 kmh SW 7.0 mph11.3 kmh 29.98 in1015.2 mb 0.00 in0.0 mm 0.00 in0.0 mm 0.31 in7.9 mm
06:50 PM 50.5°F10.3°C 38.5°F3.6°C 63% Calm Calm 2.0 mph3.2 kmh 29.98 in1015.2 mb 0.00 in0.0 mm 0.00 in0.0 mm 0.31 in7.9 mm
07:00 PM 50.0°F10.0°C 38.7°F3.7°C 65% Calm Calm 0.9 mph1.4 kmh 29.98 in1015.2 mb 0.00 in0.0 mm 0.00 in0.0 mm 0.31 in7.9 mm
07:10 PM 49.5°F9.7°C 39.0°F3.9°C 67% Calm Calm -- 29.98 in1015.2 mb 0.00 in0.0 mm 0.00 in0.0 mm 0.31 in7.9 mm
07:20 PM 48.7°F9.3°C 39.0°F3.9°C 69% Calm Calm -- 29.99 in1015.6 mb 0.00 in0.0 mm 0.00 in0.0 mm 0.31 in7.9 mm
07:30 PM 48.4°F9.1°C 39.0°F3.9°C 70% Calm Calm -- 29.99 in1015.6 mb 0.00 in0.0 mm 0.00 in0.0 mm 0.31 in7.9 mm
07:40 PM 47.7°F8.7°C 39.0°F3.9°C 72% Calm Calm 0.9 mph1.4 kmh 29.99 in1015.6 mb 0.00 in0.0 mm 0.00 in0.0 mm 0.31 in7.9 mm
07:50 PM 46.8°F8.2°C 38.8°F3.8°C 74% Calm Calm 0.9 mph1.4 kmh 30.00 in1015.9 mb 0.00 in0.0 mm 0.00 in0.0 mm 0.31 in7.9 mm
08:00 PM 46.4°F8.0°C 39.2°F4.0°C 76% Calm Calm 0.9 mph1.4 kmh 30.00 in1015.9 mb 0.00 in0.0 mm 0.00 in0.0 mm 0.31 in7.9 mm
08:10 PM 45.7°F7.6°C 38.8°F3.8°C 77% Calm Calm -- 30.00 in1015.9 mb 0.00 in0.0 mm 0.00 in0.0 mm 0.31 in7.9 mm
08:20 PM 45.1°F7.3°C 39.0°F3.9°C 79% 0.9 mph SE1.4 kmh SE 2.0 mph3.2 kmh 30.00 in1015.9 mb 0.00 in0.0 mm 0.00 in0.0 mm 0.31 in7.9 mm
08:30 PM 45.1°F7.3°C 39.0°F3.9°C 79% 0.9 mph SE1.4 kmh SE 2.0 mph3.2 kmh 30.01 in1016.3 mb 0.00 in0.0 mm 0.00 in0.0 mm 0.31 in7.9 mm
08:40 PM 45.1°F7.3°C 39.4°F4.1°C 80% 2.0 mph SE3.2 kmh SE 2.9 mph4.7 kmh 30.01 in1016.3 mb 0.00 in0.0 mm 0.00 in0.0 mm 0.31 in7.9 mm
08:50 PM 44.8°F7.1°C 38.7°F3.7°C 79% Calm Calm 2.0 mph3.2 kmh 30.01 in1016.3 mb 0.00 in0.0 mm 0.00 in0.0 mm 0.31 in7.9 mm
09:00 PM 44.1°F6.7°C 38.3°F3.5°C 80% Calm Calm -- 30.02 in1016.6 mb 0.00 in0.0 mm 0.00 in0.0 mm 0.31 in7.9 mm
09:10 PM 43.9°F6.6°C 38.1°F3.4°C 80% 0.9 mph ENE1.4 kmh ENE 2.0 mph3.2 kmh 30.03 in1016.9 mb 0.00 in0.0 mm 0.00 in0.0 mm 0.31 in7.9 mm
09:21 PM 43.2°F6.2°C 37.8°F3.2°C 81% 0.9 mph E1.4 kmh E 2.0 mph3.2 kmh 30.02 in1016.6 mb 0.00 in0.0 mm 0.00 in0.0 mm 0.31 in7.9 mm
09:31 PM 43.0°F6.1°C 37.9°F3.3°C 82% Calm Calm 0.9 mph1.4 kmh 30.03 in1016.9 mb 0.00 in0.0 mm 0.00 in0.0 mm 0.31 in7.9 mm
09:41 PM 42.4°F5.8°C 37.6°F3.1°C 83% Calm Calm 0.9 mph1.4 kmh 30.03 in1016.9 mb 0.00 in0.0 mm 0.00 in0.0 mm 0.31 in7.9 mm
09:51 PM 41.7°F5.4°C 37.2°F2.9°C 84% Calm Calm 2.0 mph3.2 kmh 30.03 in1016.9 mb 0.00 in0.0 mm 0.00 in0.0 mm 0.31 in7.9 mm
10:01 PM 41.5°F5.3°C 37.4°F3.0°C 85% Calm Calm -- 30.03 in1016.9 mb 0.00 in0.0 mm 0.00 in0.0 mm 0.31 in7.9 mm
10:11 PM 41.2°F5.1°C 37.4°F3.0°C 86% Calm Calm -- 30.04 in1017.3 mb 0.00 in0.0 mm 0.00 in0.0 mm 0.31 in7.9 mm
10:21 PM 41.2°F5.1°C 37.0°F2.8°C 85% 0.9 mph E1.4 kmh E 3.0 mph4.8 kmh 30.05 in1017.6 mb 0.00 in0.0 mm 0.00 in0.0 mm 0.31 in7.9 mm
10:31 PM 40.8°F4.9°C 36.7°F2.6°C 85% 0.9 mph E1.4 kmh E 3.0 mph4.8 kmh 30.05 in1017.6 mb 0.00 in0.0 mm 0.00 in0.0 mm 0.31 in7.9 mm
10:41 PM 40.5°F4.7°C 36.3°F2.4°C 85% 0.9 mph ESE1.4 kmh ESE 3.0 mph4.8 kmh 30.05 in1017.6 mb 0.00 in0.0 mm 0.00 in0.0 mm 0.31 in7.9 mm
10:51 PM 40.6°F4.8°C 36.9°F2.7°C 86% Calm Calm 0.9 mph1.4 kmh 30.05 in1017.6 mb 0.00 in0.0 mm 0.00 in0.0 mm 0.31 in7.9 mm
11:01 PM 40.6°F4.8°C 36.9°F2.7°C 86% 0.9 mph E1.4 kmh E 4.9 mph7.9 kmh 30.05 in1017.6 mb 0.00 in0.0 mm 0.00 in0.0 mm 0.31 in7.9 mm
11:11 PM 40.3°F4.6°C 36.5°F2.5°C 86% 0.9 mph ESE1.4 kmh ESE 2.9 mph4.7 kmh 30.05 in1017.6 mb 0.00 in0.0 mm 0.00 in0.0 mm 0.31 in7.9 mm
11:21 PM 40.3°F4.6°C 36.7°F2.6°C 87% Calm Calm 0.9 mph1.4 kmh 30.05 in1017.6 mb 0.00 in0.0 mm 0.00 in0.0 mm 0.31 in7.9 mm
11:31 PM 40.5°F4.7°C 36.9°F2.7°C 87% Calm Calm 0.9 mph1.4 kmh 30.05 in1017.6 mb 0.00 in0.0 mm 0.00 in0.0 mm 0.31 in7.9 mm
11:41 PM 40.3°F4.6°C 36.5°F2.5°C 86% Calm Calm 0.9 mph1.4 kmh 30.05 in1017.6 mb 0.00 in0.0 mm 0.00 in0.0 mm 0.31 in7.9 mm
11:51 PM 39.7°F4.3°C 36.1°F2.3°C 87% 0.9 mph NE1.4 kmh NE 5.0 mph8.0 kmh 30.05 in1017.6 mb 0.00 in0.0 mm 0.00 in0.0 mm 0.31 in7.9 mm